sensor_id;sensor_type;location;lat;lon;timestamp;P1;durP1;ratioP1;P2;durP2;ratioP2
51174;SDS011;37240;50.104;20.010;2023-02-23T00:01:55;28.70;;;10.82;;
51174;SDS011;37240;50.104;20.010;2023-02-23T00:06:56;33.03;;;11.60;;
51174;SDS011;37240;50.104;20.010;2023-02-23T00:11:57;30.90;;;11.45;;
51174;SDS011;37240;50.104;20.010;2023-02-23T00:16:57;32.70;;;12.05;;
51174;SDS011;37240;50.104;20.010;2023-02-23T00:21:58;27.77;;;12.00;;
51174;SDS011;37240;50.104;20.010;2023-02-23T00:26:59;33.33;;;12.23;;
51174;SDS011;37240;50.104;20.010;2023-02-23T00:31:59;31.45;;;13.13;;
51174;SDS011;37240;50.104;20.010;2023-02-23T00:37:00;33.45;;;13.15;;
51174;SDS011;37240;50.104;20.010;2023-02-23T00:42:00;35.90;;;12.45;;
51174;SDS011;37240;50.104;20.010;2023-02-23T00:47:01;32.25;;;13.05;;
51174;SDS011;37240;50.104;20.010;2023-02-23T00:52:02;30.27;;;11.85;;
51174;SDS011;37240;50.104;20.010;2023-02-23T00:57:02;28.15;;;11.93;;
51174;SDS011;37240;50.104;20.010;2023-02-23T01:02:03;30.83;;;12.20;;
51174;SDS011;37240;50.104;20.010;2023-02-23T01:07:03;28.00;;;11.77;;
51174;SDS011;37240;50.104;20.010;2023-02-23T01:12:04;34.45;;;13.35;;
51174;SDS011;37240;50.104;20.010;2023-02-23T01:17:05;31.23;;;11.88;;
51174;SDS011;37240;50.104;20.010;2023-02-23T01:22:06;38.83;;;14.35;;
51174;SDS011;37240;50.104;20.010;2023-02-23T01:27:06;31.05;;;13.70;;
51174;SDS011;37240;50.104;20.010;2023-02-23T01:32:07;29.17;;;12.50;;
51174;SDS011;37240;50.104;20.010;2023-02-23T01:37:07;32.25;;;13.70;;
51174;SDS011;37240;50.104;20.010;2023-02-23T01:42:11;36.13;;;13.75;;
51174;SDS011;37240;50.104;20.010;2023-02-23T01:47:13;38.28;;;13.52;;
51174;SDS011;37240;50.104;20.010;2023-02-23T01:52:14;34.95;;;13.38;;
51174;SDS011;37240;50.104;20.010;2023-02-23T01:57:17;37.63;;;13.65;;
51174;SDS011;37240;50.104;20.010;2023-02-23T02:02:21;30.33;;;13.70;;
51174;SDS011;37240;50.104;20.010;2023-02-23T02:07:25;33.40;;;14.32;;
51174;SDS011;37240;50.104;20.010;2023-02-23T02:12:28;39.05;;;13.90;;
51174;SDS011;37240;50.104;20.010;2023-02-23T02:22:56;31.10;;;13.63;;
51174;SDS011;37240;50.104;20.010;2023-02-23T02:39:25;38.22;;;14.15;;
51174;SDS011;37240;50.104;20.010;2023-02-23T02:50:01;33.15;;;13.65;;
51174;SDS011;37240;50.104;20.010;2023-02-23T03:00:16;44.22;;;15.40;;
51174;SDS011;37240;50.104;20.010;2023-02-23T03:05:19;39.63;;;14.95;;
51174;SDS011;37240;50.104;20.010;2023-02-23T03:10:34;39.95;;;13.95;;
51174;SDS011;37240;50.104;20.010;2023-02-23T03:20:58;32.45;;;13.20;;
51174;SDS011;37240;50.104;20.010;2023-02-23T03:26:14;33.65;;;14.05;;
51174;SDS011;37240;50.104;20.010;2023-02-23T03:31:39;39.63;;;13.60;;
51174;SDS011;37240;50.104;20.010;2023-02-23T03:36:54;34.63;;;13.00;;
51174;SDS011;37240;50.104;20.010;2023-02-23T03:42:03;33.05;;;13.43;;
51174;SDS011;37240;50.104;20.010;2023-02-23T03:47:08;28.17;;;11.23;;
51174;SDS011;37240;50.104;20.010;2023-02-23T03:52:13;29.83;;;13.05;;
51174;SDS011;37240;50.104;20.010;2023-02-23T03:57:17;32.73;;;13.57;;
51174;SDS011;37240;50.104;20.010;2023-02-23T04:02:20;31.33;;;13.27;;
51174;SDS011;37240;50.104;20.010;2023-02-23T04:07:22;31.23;;;12.68;;
51174;SDS011;37240;50.104;20.010;2023-02-23T04:17:57;27.35;;;12.30;;
51174;SDS011;37240;50.104;20.010;2023-02-23T04:22:57;32.85;;;13.10;;
51174;SDS011;37240;50.104;20.010;2023-02-23T04:27:58;28.63;;;12.68;;
51174;SDS011;37240;50.104;20.010;2023-02-23T04:32:59;27.73;;;12.70;;
51174;SDS011;37240;50.104;20.010;2023-02-23T04:37:59;75.68;;;26.65;;
51174;SDS011;37240;50.104;20.010;2023-02-23T04:43:00;35.03;;;15.07;;
51174;SDS011;37240;50.104;20.010;2023-02-23T04:48:01;34.97;;;13.38;;
51174;SDS011;37240;50.104;20.010;2023-02-23T04:53:01;22.88;;;11.32;;
51174;SDS011;37240;50.104;20.010;2023-02-23T04:58:02;29.92;;;12.52;;
51174;SDS011;37240;50.104;20.010;2023-02-23T05:03:03;33.42;;;14.40;;
51174;SDS011;37240;50.104;20.010;2023-02-23T05:08:03;63.85;;;26.10;;
51174;SDS011;37240;50.104;20.010;2023-02-23T05:13:04;35.65;;;13.40;;
51174;SDS011;37240;50.104;20.010;2023-02-23T05:18:05;38.10;;;13.27;;
51174;SDS011;37240;50.104;20.010;2023-02-23T05:23:05;34.83;;;15.15;;
51174;SDS011;37240;50.104;20.010;2023-02-23T05:28:06;32.83;;;12.57;;
51174;SDS011;37240;50.104;20.010;2023-02-23T05:33:07;37.63;;;13.18;;
51174;SDS011;37240;50.104;20.010;2023-02-23T05:38:07;35.78;;;14.60;;
51174;SDS011;37240;50.104;20.010;2023-02-23T05:43:08;30.75;;;13.80;;
51174;SDS011;37240;50.104;20.010;2023-02-23T05:48:09;37.17;;;14.45;;
51174;SDS011;37240;50.104;20.010;2023-02-23T05:53:10;37.85;;;14.23;;
51174;SDS011;37240;50.104;20.010;2023-02-23T05:58:11;31.10;;;13.95;;
51174;SDS011;37240;50.104;20.010;2023-02-23T06:03:11;24.90;;;12.63;;
51174;SDS011;37240;50.104;20.010;2023-02-23T06:08:12;31.55;;;13.40;;
51174;SDS011;37240;50.104;20.010;2023-02-23T06:13:12;28.55;;;13.18;;
51174;SDS011;37240;50.104;20.010;2023-02-23T06:18:13;31.73;;;13.70;;
51174;SDS011;37240;50.104;20.010;2023-02-23T06:23:14;33.58;;;14.30;;
51174;SDS011;37240;50.104;20.010;2023-02-23T06:28:14;30.15;;;12.27;;
51174;SDS011;37240;50.104;20.010;2023-02-23T06:33:15;34.55;;;13.65;;
51174;SDS011;37240;50.104;20.010;2023-02-23T06:38:15;44.30;;;16.48;;
51174;SDS011;37240;50.104;20.010;2023-02-23T06:43:16;32.20;;;14.32;;
51174;SDS011;37240;50.104;20.010;2023-02-23T06:48:16;30.88;;;13.73;;
51174;SDS011;37240;50.104;20.010;2023-02-23T06:53:17;34.10;;;14.18;;
51174;SDS011;37240;50.104;20.010;2023-02-23T06:58:18;37.75;;;14.75;;
51174;SDS011;37240;50.104;20.010;2023-02-23T07:03:18;37.92;;;14.60;;
51174;SDS011;37240;50.104;20.010;2023-02-23T07:08:19;44.92;;;15.23;;
51174;SDS011;37240;50.104;20.010;2023-02-23T07:13:19;40.38;;;14.50;;
51174;SDS011;37240;50.104;20.010;2023-02-23T07:18:20;34.00;;;13.55;;
51174;SDS011;37240;50.104;20.010;2023-02-23T07:23:20;35.08;;;14.20;;
51174;SDS011;37240;50.104;20.010;2023-02-23T07:28:21;37.60;;;16.58;;
51174;SDS011;37240;50.104;20.010;2023-02-23T07:33:22;32.40;;;13.70;;
51174;SDS011;37240;50.104;20.010;2023-02-23T07:38:23;36.30;;;14.32;;
51174;SDS011;37240;50.104;20.010;2023-02-23T07:43:24;36.13;;;14.35;;
51174;SDS011;37240;50.104;20.010;2023-02-23T07:48:24;35.22;;;13.57;;
51174;SDS011;37240;50.104;20.010;2023-02-23T07:53:25;34.72;;;14.07;;
51174;SDS011;37240;50.104;20.010;2023-02-23T07:58:26;35.40;;;14.73;;
51174;SDS011;37240;50.104;20.010;2023-02-23T08:03:27;35.95;;;14.82;;
51174;SDS011;37240;50.104;20.010;2023-02-23T08:08:27;39.85;;;15.68;;
51174;SDS011;37240;50.104;20.010;2023-02-23T08:13:28;27.73;;;13.02;;
51174;SDS011;37240;50.104;20.010;2023-02-23T08:18:29;36.28;;;14.27;;
51174;SDS011;37240;50.104;20.010;2023-02-23T08:23:30;33.78;;;15.05;;
51174;SDS011;37240;50.104;20.010;2023-02-23T08:28:32;40.08;;;14.57;;
51174;SDS011;37240;50.104;20.010;2023-02-23T08:33:32;38.97;;;15.57;;
51174;SDS011;37240;50.104;20.010;2023-02-23T08:38:33;36.53;;;16.52;;
51174;SDS011;37240;50.104;20.010;2023-02-23T08:43:33;36.72;;;15.02;;
51174;SDS011;37240;50.104;20.010;2023-02-23T08:48:34;30.08;;;14.70;;
51174;SDS011;37240;50.104;20.010;2023-02-23T08:53:35;37.72;;;16.00;;
51174;SDS011;37240;50.104;20.010;2023-02-23T08:58:35;38.90;;;15.85;;
51174;SDS011;37240;50.104;20.010;2023-02-23T09:03:36;36.05;;;14.75;;
51174;SDS011;37240;50.104;20.010;2023-02-23T09:08:36;31.95;;;13.07;;
51174;SDS011;37240;50.104;20.010;2023-02-23T09:13:37;32.97;;;13.98;;
51174;SDS011;37240;50.104;20.010;2023-02-23T09:18:38;34.70;;;13.77;;
51174;SDS011;37240;50.104;20.010;2023-02-23T09:23:39;35.55;;;14.45;;
51174;SDS011;37240;50.104;20.010;2023-02-23T09:28:39;36.30;;;16.80;;
51174;SDS011;37240;50.104;20.010;2023-02-23T09:33:40;34.53;;;15.15;;
51174;SDS011;37240;50.104;20.010;2023-02-23T09:38:42;31.85;;;15.40;;
51174;SDS011;37240;50.104;20.010;2023-02-23T09:43:43;34.55;;;15.90;;
51174;SDS011;37240;50.104;20.010;2023-02-23T09:48:47;35.53;;;14.90;;
51174;SDS011;37240;50.104;20.010;2023-02-23T09:53:58;34.70;;;15.20;;
51174;SDS011;37240;50.104;20.010;2023-02-23T09:59:03;37.10;;;16.20;;
51174;SDS011;37240;50.104;20.010;2023-02-23T10:04:15;33.03;;;14.35;;
51174;SDS011;37240;50.104;20.010;2023-02-23T10:25:25;40.60;;;15.33;;
51174;SDS011;37240;50.104;20.010;2023-02-23T10:30:30;39.38;;;16.08;;
51174;SDS011;37240;50.104;20.010;2023-02-23T10:35:32;39.40;;;16.23;;
51174;SDS011;37240;50.104;20.010;2023-02-23T10:40:33;36.25;;;16.27;;
51174;SDS011;37240;50.104;20.010;2023-02-23T10:45:35;45.72;;;16.83;;
51174;SDS011;37240;50.104;20.010;2023-02-23T10:50:42;43.33;;;18.45;;
51174;SDS011;37240;50.104;20.010;2023-02-23T10:55:44;58.78;;;19.23;;
51174;SDS011;37240;50.104;20.010;2023-02-23T11:00:53;59.45;;;18.90;;
51174;SDS011;37240;50.104;20.010;2023-02-23T11:05:59;39.83;;;17.65;;
51174;SDS011;37240;50.104;20.010;2023-02-23T11:11:10;49.20;;;18.75;;
51174;SDS011;37240;50.104;20.010;2023-02-23T11:16:27;43.95;;;16.90;;
51174;SDS011;37240;50.104;20.010;2023-02-23T11:21:33;46.35;;;16.10;;
51174;SDS011;37240;50.104;20.010;2023-02-23T11:26:37;49.03;;;19.30;;
51174;SDS011;37240;50.104;20.010;2023-02-23T11:31:44;36.58;;;16.95;;
51174;SDS011;37240;50.104;20.010;2023-02-23T11:37:36;38.35;;;17.50;;
51174;SDS011;37240;50.104;20.010;2023-02-23T11:42:15;44.25;;;17.17;;
51174;SDS011;37240;50.104;20.010;2023-02-23T11:47:20;40.83;;;17.23;;
51174;SDS011;37240;50.104;20.010;2023-02-23T11:52:23;38.30;;;17.77;;
51174;SDS011;37240;50.104;20.010;2023-02-23T11:57:27;53.22;;;21.92;;
51174;SDS011;37240;50.104;20.010;2023-02-23T12:02:30;55.00;;;16.48;;
51174;SDS011;37240;50.104;20.010;2023-02-23T12:07:38;44.92;;;16.23;;
51174;SDS011;37240;50.104;20.010;2023-02-23T12:12:52;44.05;;;17.38;;
51174;SDS011;37240;50.104;20.010;2023-02-23T12:23:31;43.35;;;17.13;;
51174;SDS011;37240;50.104;20.010;2023-02-23T12:28:39;59.20;;;18.38;;
51174;SDS011;37240;50.104;20.010;2023-02-23T12:33:52;53.17;;;17.20;;
51174;SDS011;37240;50.104;20.010;2023-02-23T12:39:45;60.13;;;24.05;;
51174;SDS011;37240;50.104;20.010;2023-02-23T12:44:40;64.90;;;23.48;;
51174;SDS011;37240;50.104;20.010;2023-02-23T12:49:43;44.05;;;16.52;;
51174;SDS011;37240;50.104;20.010;2023-02-23T12:54:51;35.60;;;16.48;;
51174;SDS011;37240;50.104;20.010;2023-02-23T13:15:48;37.88;;;15.93;;
51174;SDS011;37240;50.104;20.010;2023-02-23T13:20:54;28.95;;;13.60;;
51174;SDS011;37240;50.104;20.010;2023-02-23T13:26:26;55.30;;;17.05;;
51174;SDS011;37240;50.104;20.010;2023-02-23T13:31:48;63.20;;;16.35;;
51174;SDS011;37240;50.104;20.010;2023-02-23T13:36:49;47.95;;;16.73;;
51174;SDS011;37240;50.104;20.010;2023-02-23T13:53:20;49.35;;;15.60;;
51174;SDS011;37240;50.104;20.010;2023-02-23T13:58:36;35.72;;;14.55;;
51174;SDS011;37240;50.104;20.010;2023-02-23T14:03:46;39.30;;;14.00;;
51174;SDS011;37240;50.104;20.010;2023-02-23T14:08:54;36.55;;;13.88;;
51174;SDS011;37240;50.104;20.010;2023-02-23T14:14:37;32.67;;;13.27;;
51174;SDS011;37240;50.104;20.010;2023-02-23T14:19:36;38.25;;;13.73;;
51174;SDS011;37240;50.104;20.010;2023-02-23T14:24:40;44.38;;;14.63;;
51174;SDS011;37240;50.104;20.010;2023-02-23T14:29:42;33.70;;;14.68;;
51174;SDS011;37240;50.104;20.010;2023-02-23T14:35:03;47.97;;;15.93;;
51174;SDS011;37240;50.104;20.010;2023-02-23T14:40:11;40.70;;;15.23;;
51174;SDS011;37240;50.104;20.010;2023-02-23T14:50:29;38.97;;;14.30;;
51174;SDS011;37240;50.104;20.010;2023-02-23T14:55:32;39.22;;;13.75;;
51174;SDS011;37240;50.104;20.010;2023-02-23T15:00:36;40.85;;;13.52;;
51174;SDS011;37240;50.104;20.010;2023-02-23T15:05:42;40.55;;;14.02;;
51174;SDS011;37240;50.104;20.010;2023-02-23T15:10:49;40.50;;;14.07;;
51174;SDS011;37240;50.104;20.010;2023-02-23T15:16:00;29.95;;;13.43;;
51174;SDS011;37240;50.104;20.010;2023-02-23T15:26:16;39.90;;;14.25;;
51174;SDS011;37240;50.104;20.010;2023-02-23T15:31:22;42.63;;;15.15;;
51174;SDS011;37240;50.104;20.010;2023-02-23T15:36:29;35.00;;;15.07;;
51174;SDS011;37240;50.104;20.010;2023-02-23T15:41:33;51.13;;;16.80;;
51174;SDS011;37240;50.104;20.010;2023-02-23T15:46:35;44.80;;;16.00;;
51174;SDS011;37240;50.104;20.010;2023-02-23T15:51:38;42.83;;;14.43;;
51174;SDS011;37240;50.104;20.010;2023-02-23T15:56:42;42.70;;;13.75;;
51174;SDS011;37240;50.104;20.010;2023-02-23T16:01:46;40.10;;;14.55;;
51174;SDS011;37240;50.104;20.010;2023-02-23T16:06:54;42.88;;;15.05;;
51174;SDS011;37240;50.104;20.010;2023-02-23T16:12:13;41.03;;;15.32;;
51174;SDS011;37240;50.104;20.010;2023-02-23T16:17:38;45.67;;;16.27;;
51174;SDS011;37240;50.104;20.010;2023-02-23T16:22:43;44.97;;;16.58;;
51174;SDS011;37240;50.104;20.010;2023-02-23T16:27:45;61.50;;;18.65;;
51174;SDS011;37240;50.104;20.010;2023-02-23T16:38:25;50.90;;;18.77;;
51174;SDS011;37240;50.104;20.010;2023-02-23T16:43:27;39.72;;;15.52;;
51174;SDS011;37240;50.104;20.010;2023-02-23T16:48:28;53.58;;;18.50;;
51174;SDS011;37240;50.104;20.010;2023-02-23T16:53:29;65.18;;;19.27;;
51174;SDS011;37240;50.104;20.010;2023-02-23T16:58:30;54.75;;;18.35;;
51174;SDS011;37240;50.104;20.010;2023-02-23T17:03:33;51.60;;;18.00;;
51174;SDS011;37240;50.104;20.010;2023-02-23T17:08:34;46.47;;;18.23;;
51174;SDS011;37240;50.104;20.010;2023-02-23T17:13:34;45.10;;;17.85;;
51174;SDS011;37240;50.104;20.010;2023-02-23T17:18:36;54.97;;;20.00;;
51174;SDS011;37240;50.104;20.010;2023-02-23T17:23:38;57.45;;;22.80;;
51174;SDS011;37240;50.104;20.010;2023-02-23T17:28:39;73.13;;;24.27;;
51174;SDS011;37240;50.104;20.010;2023-02-23T17:33:40;69.05;;;24.58;;
51174;SDS011;37240;50.104;20.010;2023-02-23T17:38:41;71.93;;;25.77;;
51174;SDS011;37240;50.104;20.010;2023-02-23T17:43:41;65.28;;;24.48;;
51174;SDS011;37240;50.104;20.010;2023-02-23T17:48:42;61.88;;;23.85;;
51174;SDS011;37240;50.104;20.010;2023-02-23T17:53:42;69.10;;;26.30;;
51174;SDS011;37240;50.104;20.010;2023-02-23T17:58:43;68.30;;;26.63;;
51174;SDS011;37240;50.104;20.010;2023-02-23T18:03:44;73.80;;;28.42;;
51174;SDS011;37240;50.104;20.010;2023-02-23T18:08:44;66.47;;;24.60;;
51174;SDS011;37240;50.104;20.010;2023-02-23T18:13:45;73.78;;;26.52;;
51174;SDS011;37240;50.104;20.010;2023-02-23T18:18:46;62.75;;;23.48;;
51174;SDS011;37240;50.104;20.010;2023-02-23T18:23:47;82.47;;;29.67;;
51174;SDS011;37240;50.104;20.010;2023-02-23T18:28:49;86.85;;;32.10;;
51174;SDS011;37240;50.104;20.010;2023-02-23T18:33:50;92.72;;;35.17;;
51174;SDS011;37240;50.104;20.010;2023-02-23T18:38:50;91.55;;;34.30;;
51174;SDS011;37240;50.104;20.010;2023-02-23T18:43:51;92.80;;;34.90;;
51174;SDS011;37240;50.104;20.010;2023-02-23T18:48:51;98.72;;;32.78;;
51174;SDS011;37240;50.104;20.010;2023-02-23T18:53:52;89.13;;;34.05;;
51174;SDS011;37240;50.104;20.010;2023-02-23T18:58:56;86.70;;;32.13;;
51174;SDS011;37240;50.104;20.010;2023-02-23T19:03:59;85.72;;;32.67;;
51174;SDS011;37240;50.104;20.010;2023-02-23T19:09:01;96.30;;;35.22;;
51174;SDS011;37240;50.104;20.010;2023-02-23T19:14:03;89.13;;;32.78;;
51174;SDS011;37240;50.104;20.010;2023-02-23T19:19:05;87.50;;;33.97;;
51174;SDS011;37240;50.104;20.010;2023-02-23T19:24:07;104.43;;;37.35;;
51174;SDS011;37240;50.104;20.010;2023-02-23T19:29:08;99.35;;;36.88;;
51174;SDS011;37240;50.104;20.010;2023-02-23T19:34:08;96.53;;;35.63;;
51174;SDS011;37240;50.104;20.010;2023-02-23T19:39:09;87.93;;;33.88;;
51174;SDS011;37240;50.104;20.010;2023-02-23T19:44:10;97.78;;;37.15;;
51174;SDS011;37240;50.104;20.010;2023-02-23T19:49:10;97.60;;;37.80;;
51174;SDS011;37240;50.104;20.010;2023-02-23T19:54:11;107.57;;;36.67;;
51174;SDS011;37240;50.104;20.010;2023-02-23T19:59:11;95.28;;;35.58;;
51174;SDS011;37240;50.104;20.010;2023-02-23T20:04:12;98.75;;;35.80;;
51174;SDS011;37240;50.104;20.010;2023-02-23T20:09:13;107.18;;;38.75;;
51174;SDS011;37240;50.104;20.010;2023-02-23T20:14:13;112.25;;;40.20;;
51174;SDS011;37240;50.104;20.010;2023-02-23T20:19:14;109.00;;;42.15;;
51174;SDS011;37240;50.104;20.010;2023-02-23T20:24:15;101.53;;;41.58;;
51174;SDS011;37240;50.104;20.010;2023-02-23T20:29:16;118.47;;;40.58;;
51174;SDS011;37240;50.104;20.010;2023-02-23T20:34:18;104.93;;;42.72;;
51174;SDS011;37240;50.104;20.010;2023-02-23T20:39:21;112.85;;;44.92;;
51174;SDS011;37240;50.104;20.010;2023-02-23T20:44:23;115.97;;;43.85;;
51174;SDS011;37240;50.104;20.010;2023-02-23T20:49:23;118.20;;;45.75;;
51174;SDS011;37240;50.104;20.010;2023-02-23T20:54:24;121.07;;;42.65;;
51174;SDS011;37240;50.104;20.010;2023-02-23T20:59:25;124.03;;;43.38;;
51174;SDS011;37240;50.104;20.010;2023-02-23T21:04:26;112.47;;;42.10;;
51174;SDS011;37240;50.104;20.010;2023-02-23T21:09:27;103.85;;;41.00;;
51174;SDS011;37240;50.104;20.010;2023-02-23T21:14:27;104.20;;;41.65;;
51174;SDS011;37240;50.104;20.010;2023-02-23T21:19:28;117.63;;;45.10;;
51174;SDS011;37240;50.104;20.010;2023-02-23T21:24:28;116.47;;;44.25;;
51174;SDS011;37240;50.104;20.010;2023-02-23T21:29:29;119.65;;;41.88;;
51174;SDS011;37240;50.104;20.010;2023-02-23T21:34:30;119.82;;;44.40;;
51174;SDS011;37240;50.104;20.010;2023-02-23T21:39:30;139.93;;;49.63;;
51174;SDS011;37240;50.104;20.010;2023-02-23T21:44:31;124.43;;;49.33;;
51174;SDS011;37240;50.104;20.010;2023-02-23T21:49:32;120.55;;;44.35;;
51174;SDS011;37240;50.104;20.010;2023-02-23T21:54:33;114.95;;;42.72;;
51174;SDS011;37240;50.104;20.010;2023-02-23T21:59:33;142.52;;;52.25;;
51174;SDS011;37240;50.104;20.010;2023-02-23T22:04:34;182.63;;;64.10;;
51174;SDS011;37240;50.104;20.010;2023-02-23T22:09:34;217.23;;;66.80;;
51174;SDS011;37240;50.104;20.010;2023-02-23T22:14:35;251.93;;;76.05;;
51174;SDS011;37240;50.104;20.010;2023-02-23T22:19:35;172.00;;;57.55;;
51174;SDS011;37240;50.104;20.010;2023-02-23T22:24:36;157.13;;;52.20;;
51174;SDS011;37240;50.104;20.010;2023-02-23T22:29:37;147.82;;;47.75;;
51174;SDS011;37240;50.104;20.010;2023-02-23T22:34:37;149.77;;;49.65;;
51174;SDS011;37240;50.104;20.010;2023-02-23T22:39:38;148.88;;;51.45;;
51174;SDS011;37240;50.104;20.010;2023-02-23T22:44:38;154.00;;;53.17;;
51174;SDS011;37240;50.104;20.010;2023-02-23T22:49:39;164.02;;;57.85;;
51174;SDS011;37240;50.104;20.010;2023-02-23T22:54:40;150.10;;;55.85;;
51174;SDS011;37240;50.104;20.010;2023-02-23T22:59:40;155.05;;;55.10;;
51174;SDS011;37240;50.104;20.010;2023-02-23T23:04:41;148.82;;;51.05;;
51174;SDS011;37240;50.104;20.010;2023-02-23T23:09:41;150.10;;;51.72;;
51174;SDS011;37240;50.104;20.010;2023-02-23T23:14:42;140.35;;;51.53;;
51174;SDS011;37240;50.104;20.010;2023-02-23T23:19:43;158.98;;;58.83;;
51174;SDS011;37240;50.104;20.010;2023-02-23T23:24:44;175.50;;;60.50;;
51174;SDS011;37240;50.104;20.010;2023-02-23T23:29:47;184.48;;;61.90;;
51174;SDS011;37240;50.104;20.010;2023-02-23T23:34:48;171.98;;;61.92;;
51174;SDS011;37240;50.104;20.010;2023-02-23T23:39:49;171.80;;;61.90;;
51174;SDS011;37240;50.104;20.010;2023-02-23T23:44:50;157.13;;;58.15;;
51174;SDS011;37240;50.104;20.010;2023-02-23T23:49:52;175.50;;;59.30;;
51174;SDS011;37240;50.104;20.010;2023-02-23T23:54:53;158.30;;;55.85;;
51174;SDS011;37240;50.104;20.010;2023-02-23T23:59:53;148.68;;;52.83;;
